sensor_id;sensor_type;location;lat;lon;timestamp;P1;durP1;ratioP1;P2;durP2;ratioP2
1350;SDS011;669;50.206;9.998;2024-01-10T00:01:08;11.43;;;6.27;;
1350;SDS011;669;50.206;9.998;2024-01-10T00:03:36;15.17;;;8.03;;
1350;SDS011;669;50.206;9.998;2024-01-10T00:06:04;9.40;;;6.50;;
1350;SDS011;669;50.206;9.998;2024-01-10T00:08:33;11.77;;;6.63;;
1350;SDS011;669;50.206;9.998;2024-01-10T00:11:02;11.40;;;8.13;;
1350;SDS011;669;50.206;9.998;2024-01-10T00:13:31;12.67;;;6.47;;
1350;SDS011;669;50.206;9.998;2024-01-10T00:15:59;11.30;;;8.67;;
1350;SDS011;669;50.206;9.998;2024-01-10T00:18:27;14.10;;;7.37;;
1350;SDS011;669;50.206;9.998;2024-01-10T00:20:55;12.43;;;7.67;;
1350;SDS011;669;50.206;9.998;2024-01-10T00:23:23;10.57;;;6.97;;
1350;SDS011;669;50.206;9.998;2024-01-10T00:25:51;14.47;;;7.80;;
1350;SDS011;669;50.206;9.998;2024-01-10T00:28:21;11.00;;;6.43;;
1350;SDS011;669;50.206;9.998;2024-01-10T00:30:48;12.17;;;6.17;;
1350;SDS011;669;50.206;9.998;2024-01-10T00:33:16;11.20;;;5.73;;
1350;SDS011;669;50.206;9.998;2024-01-10T00:35:44;15.63;;;6.73;;
1350;SDS011;669;50.206;9.998;2024-01-10T00:38:13;10.97;;;6.20;;
1350;SDS011;669;50.206;9.998;2024-01-10T00:40:41;7.87;;;5.43;;
1350;SDS011;669;50.206;9.998;2024-01-10T00:43:09;11.73;;;6.00;;
1350;SDS011;669;50.206;9.998;2024-01-10T00:45:38;13.27;;;7.10;;
1350;SDS011;669;50.206;9.998;2024-01-10T00:48:06;10.77;;;6.53;;
1350;SDS011;669;50.206;9.998;2024-01-10T00:50:34;17.20;;;7.07;;
1350;SDS011;669;50.206;9.998;2024-01-10T00:53:02;13.70;;;7.17;;
1350;SDS011;669;50.206;9.998;2024-01-10T00:55:31;10.30;;;6.33;;
1350;SDS011;669;50.206;9.998;2024-01-10T00:57:59;11.87;;;7.10;;
1350;SDS011;669;50.206;9.998;2024-01-10T01:00:27;11.53;;;6.50;;
1350;SDS011;669;50.206;9.998;2024-01-10T01:02:56;8.60;;;5.10;;
1350;SDS011;669;50.206;9.998;2024-01-10T01:05:24;11.80;;;6.53;;
1350;SDS011;669;50.206;9.998;2024-01-10T01:07:52;12.83;;;6.50;;
1350;SDS011;669;50.206;9.998;2024-01-10T01:10:20;16.77;;;7.33;;
1350;SDS011;669;50.206;9.998;2024-01-10T01:12:48;15.30;;;8.40;;
1350;SDS011;669;50.206;9.998;2024-01-10T01:15:16;11.17;;;7.00;;
1350;SDS011;669;50.206;9.998;2024-01-10T01:17:44;14.20;;;6.93;;
1350;SDS011;669;50.206;9.998;2024-01-10T01:20:13;9.20;;;6.70;;
1350;SDS011;669;50.206;9.998;2024-01-10T01:22:41;11.63;;;6.50;;
1350;SDS011;669;50.206;9.998;2024-01-10T01:25:09;9.03;;;6.20;;
1350;SDS011;669;50.206;9.998;2024-01-10T01:27:37;8.93;;;5.93;;
1350;SDS011;669;50.206;9.998;2024-01-10T01:30:06;13.17;;;6.70;;
1350;SDS011;669;50.206;9.998;2024-01-10T01:32:35;11.33;;;6.60;;
1350;SDS011;669;50.206;9.998;2024-01-10T01:35:03;11.93;;;6.77;;
1350;SDS011;669;50.206;9.998;2024-01-10T01:37:33;13.80;;;5.83;;
1350;SDS011;669;50.206;9.998;2024-01-10T01:40:01;10.47;;;7.23;;
1350;SDS011;669;50.206;9.998;2024-01-10T01:42:29;11.70;;;7.00;;
1350;SDS011;669;50.206;9.998;2024-01-10T01:44:57;9.83;;;6.50;;
1350;SDS011;669;50.206;9.998;2024-01-10T01:47:24;14.00;;;6.83;;
1350;SDS011;669;50.206;9.998;2024-01-10T01:49:54;9.73;;;5.90;;
1350;SDS011;669;50.206;9.998;2024-01-10T01:52:22;8.80;;;5.60;;
1350;SDS011;669;50.206;9.998;2024-01-10T01:54:51;13.93;;;6.93;;
1350;SDS011;669;50.206;9.998;2024-01-10T01:57:19;10.03;;;5.20;;
1350;SDS011;669;50.206;9.998;2024-01-10T01:59:47;8.53;;;5.27;;
1350;SDS011;669;50.206;9.998;2024-01-10T02:02:16;8.00;;;5.53;;
1350;SDS011;669;50.206;9.998;2024-01-10T02:04:45;12.77;;;6.53;;
1350;SDS011;669;50.206;9.998;2024-01-10T02:07:14;11.37;;;6.67;;
1350;SDS011;669;50.206;9.998;2024-01-10T02:09:42;9.03;;;6.07;;
1350;SDS011;669;50.206;9.998;2024-01-10T02:12:11;10.03;;;6.10;;
1350;SDS011;669;50.206;9.998;2024-01-10T02:14:40;12.23;;;6.60;;
1350;SDS011;669;50.206;9.998;2024-01-10T02:17:07;10.83;;;7.00;;
1350;SDS011;669;50.206;9.998;2024-01-10T02:19:35;10.67;;;6.07;;
1350;SDS011;669;50.206;9.998;2024-01-10T02:22:03;12.43;;;7.10;;
1350;SDS011;669;50.206;9.998;2024-01-10T02:24:31;15.13;;;6.70;;
1350;SDS011;669;50.206;9.998;2024-01-10T02:27:00;14.70;;;7.87;;
1350;SDS011;669;50.206;9.998;2024-01-10T02:29:29;13.00;;;6.90;;
1350;SDS011;669;50.206;9.998;2024-01-10T02:31:57;14.70;;;7.00;;
1350;SDS011;669;50.206;9.998;2024-01-10T02:34:25;9.93;;;5.80;;
1350;SDS011;669;50.206;9.998;2024-01-10T02:36:53;8.67;;;5.63;;
1350;SDS011;669;50.206;9.998;2024-01-10T02:39:21;17.57;;;7.50;;
1350;SDS011;669;50.206;9.998;2024-01-10T02:41:49;12.00;;;6.97;;
1350;SDS011;669;50.206;9.998;2024-01-10T02:44:18;10.90;;;7.00;;
1350;SDS011;669;50.206;9.998;2024-01-10T02:46:48;13.23;;;6.80;;
1350;SDS011;669;50.206;9.998;2024-01-10T02:49:16;16.93;;;7.53;;
1350;SDS011;669;50.206;9.998;2024-01-10T02:51:44;14.77;;;8.10;;
1350;SDS011;669;50.206;9.998;2024-01-10T02:54:12;14.50;;;7.20;;
1350;SDS011;669;50.206;9.998;2024-01-10T02:56:40;15.77;;;7.33;;
1350;SDS011;669;50.206;9.998;2024-01-10T02:59:08;13.87;;;6.47;;
1350;SDS011;669;50.206;9.998;2024-01-10T03:01:38;15.37;;;6.90;;
1350;SDS011;669;50.206;9.998;2024-01-10T03:04:08;13.60;;;7.10;;
1350;SDS011;669;50.206;9.998;2024-01-10T03:06:36;12.53;;;6.63;;
1350;SDS011;669;50.206;9.998;2024-01-10T03:09:04;15.00;;;6.70;;
1350;SDS011;669;50.206;9.998;2024-01-10T03:11:31;15.90;;;8.30;;
1350;SDS011;669;50.206;9.998;2024-01-10T03:14:01;14.13;;;7.17;;
1350;SDS011;669;50.206;9.998;2024-01-10T03:16:30;12.70;;;7.10;;
1350;SDS011;669;50.206;9.998;2024-01-10T03:19:00;13.37;;;7.40;;
1350;SDS011;669;50.206;9.998;2024-01-10T03:21:28;11.13;;;6.63;;
1350;SDS011;669;50.206;9.998;2024-01-10T03:23:56;10.10;;;5.97;;
1350;SDS011;669;50.206;9.998;2024-01-10T03:26:25;17.33;;;7.80;;
1350;SDS011;669;50.206;9.998;2024-01-10T03:28:54;12.87;;;8.20;;
1350;SDS011;669;50.206;9.998;2024-01-10T03:31:22;13.30;;;7.00;;
1350;SDS011;669;50.206;9.998;2024-01-10T03:33:51;14.40;;;7.20;;
1350;SDS011;669;50.206;9.998;2024-01-10T03:36:20;12.00;;;6.60;;
1350;SDS011;669;50.206;9.998;2024-01-10T03:38:48;16.93;;;7.30;;
1350;SDS011;669;50.206;9.998;2024-01-10T03:41:16;9.37;;;6.03;;
1350;SDS011;669;50.206;9.998;2024-01-10T03:43:45;13.90;;;6.63;;
1350;SDS011;669;50.206;9.998;2024-01-10T03:46:13;13.90;;;7.77;;
1350;SDS011;669;50.206;9.998;2024-01-10T03:48:43;12.60;;;7.40;;
1350;SDS011;669;50.206;9.998;2024-01-10T03:51:15;9.83;;;6.10;;
1350;SDS011;669;50.206;9.998;2024-01-10T03:53:45;11.13;;;5.80;;
1350;SDS011;669;50.206;9.998;2024-01-10T03:56:13;15.83;;;7.27;;
1350;SDS011;669;50.206;9.998;2024-01-10T03:58:41;13.13;;;7.90;;
1350;SDS011;669;50.206;9.998;2024-01-10T04:01:09;16.93;;;7.57;;
1350;SDS011;669;50.206;9.998;2024-01-10T04:03:37;15.50;;;7.37;;
1350;SDS011;669;50.206;9.998;2024-01-10T04:06:07;11.93;;;7.60;;
1350;SDS011;669;50.206;9.998;2024-01-10T04:08:35;11.80;;;6.50;;
1350;SDS011;669;50.206;9.998;2024-01-10T04:11:05;17.83;;;7.20;;
1350;SDS011;669;50.206;9.998;2024-01-10T04:13:35;16.87;;;8.57;;
1350;SDS011;669;50.206;9.998;2024-01-10T04:16:03;18.37;;;7.87;;
1350;SDS011;669;50.206;9.998;2024-01-10T04:18:31;14.53;;;7.60;;
1350;SDS011;669;50.206;9.998;2024-01-10T04:20:59;14.07;;;7.77;;
1350;SDS011;669;50.206;9.998;2024-01-10T04:23:28;12.80;;;7.33;;
1350;SDS011;669;50.206;9.998;2024-01-10T04:25:57;11.27;;;7.03;;
1350;SDS011;669;50.206;9.998;2024-01-10T04:28:26;13.67;;;7.80;;
1350;SDS011;669;50.206;9.998;2024-01-10T04:30:54;15.77;;;8.80;;
1350;SDS011;669;50.206;9.998;2024-01-10T04:33:22;10.37;;;6.40;;
1350;SDS011;669;50.206;9.998;2024-01-10T04:35:50;14.80;;;8.40;;
1350;SDS011;669;50.206;9.998;2024-01-10T04:38:18;14.60;;;7.90;;
1350;SDS011;669;50.206;9.998;2024-01-10T04:40:46;12.63;;;7.57;;
1350;SDS011;669;50.206;9.998;2024-01-10T04:43:14;12.40;;;6.30;;
1350;SDS011;669;50.206;9.998;2024-01-10T04:45:43;15.40;;;8.00;;
1350;SDS011;669;50.206;9.998;2024-01-10T04:48:11;19.90;;;8.50;;
1350;SDS011;669;50.206;9.998;2024-01-10T04:50:39;17.73;;;9.63;;
1350;SDS011;669;50.206;9.998;2024-01-10T04:53:07;20.53;;;9.53;;
1350;SDS011;669;50.206;9.998;2024-01-10T04:55:35;16.47;;;8.20;;
1350;SDS011;669;50.206;9.998;2024-01-10T04:58:04;15.13;;;8.00;;
1350;SDS011;669;50.206;9.998;2024-01-10T05:00:31;13.40;;;6.93;;
1350;SDS011;669;50.206;9.998;2024-01-10T05:03:01;11.00;;;7.30;;
1350;SDS011;669;50.206;9.998;2024-01-10T05:05:29;13.90;;;7.13;;
1350;SDS011;669;50.206;9.998;2024-01-10T05:07:57;13.40;;;7.70;;
1350;SDS011;669;50.206;9.998;2024-01-10T05:10:25;14.13;;;7.83;;
1350;SDS011;669;50.206;9.998;2024-01-10T05:12:53;12.50;;;7.70;;
1350;SDS011;669;50.206;9.998;2024-01-10T05:15:21;17.43;;;8.03;;
1350;SDS011;669;50.206;9.998;2024-01-10T05:17:49;16.13;;;7.07;;
1350;SDS011;669;50.206;9.998;2024-01-10T05:20:19;14.63;;;8.10;;
1350;SDS011;669;50.206;9.998;2024-01-10T05:22:47;10.80;;;7.00;;
1350;SDS011;669;50.206;9.998;2024-01-10T05:25:15;14.67;;;7.10;;
1350;SDS011;669;50.206;9.998;2024-01-10T05:27:44;15.37;;;8.83;;
1350;SDS011;669;50.206;9.998;2024-01-10T05:30:12;11.30;;;6.60;;
1350;SDS011;669;50.206;9.998;2024-01-10T05:32:41;12.00;;;7.27;;
1350;SDS011;669;50.206;9.998;2024-01-10T05:35:11;12.80;;;6.70;;
1350;SDS011;669;50.206;9.998;2024-01-10T05:37:40;14.67;;;8.23;;
1350;SDS011;669;50.206;9.998;2024-01-10T05:40:08;9.43;;;6.80;;
1350;SDS011;669;50.206;9.998;2024-01-10T05:42:37;16.63;;;7.83;;
1350;SDS011;669;50.206;9.998;2024-01-10T05:45:05;14.20;;;7.00;;
1350;SDS011;669;50.206;9.998;2024-01-10T05:47:34;13.60;;;7.93;;
1350;SDS011;669;50.206;9.998;2024-01-10T05:50:02;12.37;;;6.87;;
1350;SDS011;669;50.206;9.998;2024-01-10T05:52:32;17.90;;;7.40;;
1350;SDS011;669;50.206;9.998;2024-01-10T05:55:01;16.67;;;8.00;;
1350;SDS011;669;50.206;9.998;2024-01-10T05:57:30;13.10;;;6.60;;
1350;SDS011;669;50.206;9.998;2024-01-10T05:59:58;12.73;;;7.27;;
1350;SDS011;669;50.206;9.998;2024-01-10T06:02:26;12.83;;;7.60;;
1350;SDS011;669;50.206;9.998;2024-01-10T06:04:54;17.13;;;8.53;;
1350;SDS011;669;50.206;9.998;2024-01-10T06:07:22;12.07;;;6.50;;
1350;SDS011;669;50.206;9.998;2024-01-10T06:09:50;16.50;;;8.23;;
1350;SDS011;669;50.206;9.998;2024-01-10T06:12:20;16.93;;;8.40;;
1350;SDS011;669;50.206;9.998;2024-01-10T06:14:47;17.60;;;8.60;;
1350;SDS011;669;50.206;9.998;2024-01-10T06:17:16;10.77;;;5.83;;
1350;SDS011;669;50.206;9.998;2024-01-10T06:19:45;15.00;;;8.63;;
1350;SDS011;669;50.206;9.998;2024-01-10T06:22:13;12.33;;;6.83;;
1350;SDS011;669;50.206;9.998;2024-01-10T06:24:41;14.90;;;8.03;;
1350;SDS011;669;50.206;9.998;2024-01-10T06:27:09;16.90;;;8.20;;
1350;SDS011;669;50.206;9.998;2024-01-10T06:29:38;14.03;;;7.17;;
1350;SDS011;669;50.206;9.998;2024-01-10T06:32:06;14.30;;;6.90;;
1350;SDS011;669;50.206;9.998;2024-01-10T06:34:34;13.83;;;8.13;;
1350;SDS011;669;50.206;9.998;2024-01-10T06:37:02;15.57;;;8.30;;
1350;SDS011;669;50.206;9.998;2024-01-10T06:39:31;13.93;;;7.30;;
1350;SDS011;669;50.206;9.998;2024-01-10T06:41:59;13.97;;;6.90;;
1350;SDS011;669;50.206;9.998;2024-01-10T06:44:30;12.27;;;7.00;;
1350;SDS011;669;50.206;9.998;2024-01-10T06:46:59;15.13;;;6.93;;
1350;SDS011;669;50.206;9.998;2024-01-10T06:49:27;12.80;;;6.43;;
1350;SDS011;669;50.206;9.998;2024-01-10T06:51:55;12.57;;;5.13;;
1350;SDS011;669;50.206;9.998;2024-01-10T06:54:23;11.73;;;6.47;;
1350;SDS011;669;50.206;9.998;2024-01-10T06:56:51;9.83;;;6.30;;
1350;SDS011;669;50.206;9.998;2024-01-10T06:59:19;9.20;;;5.40;;
1350;SDS011;669;50.206;9.998;2024-01-10T07:01:50;12.60;;;6.40;;
1350;SDS011;669;50.206;9.998;2024-01-10T07:04:20;10.17;;;5.70;;
1350;SDS011;669;50.206;9.998;2024-01-10T07:06:51;14.97;;;6.77;;
1350;SDS011;669;50.206;9.998;2024-01-10T07:09:18;13.43;;;5.77;;
1350;SDS011;669;50.206;9.998;2024-01-10T07:11:46;16.17;;;8.37;;
1350;SDS011;669;50.206;9.998;2024-01-10T07:14:15;10.50;;;6.80;;
1350;SDS011;669;50.206;9.998;2024-01-10T07:16:43;10.37;;;5.63;;
1350;SDS011;669;50.206;9.998;2024-01-10T07:19:13;10.63;;;5.50;;
1350;SDS011;669;50.206;9.998;2024-01-10T07:21:43;16.80;;;7.87;;
1350;SDS011;669;50.206;9.998;2024-01-10T07:24:11;11.07;;;7.00;;
1350;SDS011;669;50.206;9.998;2024-01-10T07:26:39;8.70;;;5.70;;
1350;SDS011;669;50.206;9.998;2024-01-10T07:29:07;10.43;;;5.67;;
1350;SDS011;669;50.206;9.998;2024-01-10T07:31:35;9.70;;;6.17;;
1350;SDS011;669;50.206;9.998;2024-01-10T07:34:04;11.27;;;6.70;;
1350;SDS011;669;50.206;9.998;2024-01-10T07:36:32;13.57;;;6.97;;
1350;SDS011;669;50.206;9.998;2024-01-10T07:39:02;12.93;;;7.17;;
1350;SDS011;669;50.206;9.998;2024-01-10T07:41:30;10.73;;;5.73;;
1350;SDS011;669;50.206;9.998;2024-01-10T07:43:59;11.50;;;5.90;;
1350;SDS011;669;50.206;9.998;2024-01-10T07:46:27;12.33;;;6.70;;
1350;SDS011;669;50.206;9.998;2024-01-10T07:48:55;11.73;;;6.17;;
1350;SDS011;669;50.206;9.998;2024-01-10T07:51:23;9.53;;;6.27;;
1350;SDS011;669;50.206;9.998;2024-01-10T07:53:50;12.90;;;5.50;;
1350;SDS011;669;50.206;9.998;2024-01-10T07:56:20;10.50;;;5.43;;
1350;SDS011;669;50.206;9.998;2024-01-10T07:58:48;10.73;;;5.43;;
1350;SDS011;669;50.206;9.998;2024-01-10T08:01:16;10.47;;;5.80;;
1350;SDS011;669;50.206;9.998;2024-01-10T08:03:44;10.30;;;6.13;;
1350;SDS011;669;50.206;9.998;2024-01-10T08:06:12;11.57;;;6.03;;
1350;SDS011;669;50.206;9.998;2024-01-10T08:08:52;8.90;;;5.57;;
1350;SDS011;669;50.206;9.998;2024-01-10T08:11:21;9.30;;;5.27;;
1350;SDS011;669;50.206;9.998;2024-01-10T08:13:51;10.80;;;6.80;;
1350;SDS011;669;50.206;9.998;2024-01-10T08:16:19;10.27;;;5.67;;
1350;SDS011;669;50.206;9.998;2024-01-10T08:18:47;11.33;;;5.83;;
1350;SDS011;669;50.206;9.998;2024-01-10T08:21:15;12.90;;;7.53;;
1350;SDS011;669;50.206;9.998;2024-01-10T08:23:43;14.17;;;8.70;;
1350;SDS011;669;50.206;9.998;2024-01-10T08:26:11;9.80;;;6.67;;
1350;SDS011;669;50.206;9.998;2024-01-10T08:28:41;11.90;;;7.03;;
1350;SDS011;669;50.206;9.998;2024-01-10T08:31:09;13.13;;;8.33;;
1350;SDS011;669;50.206;9.998;2024-01-10T08:33:39;11.90;;;7.20;;
1350;SDS011;669;50.206;9.998;2024-01-10T08:36:07;11.90;;;8.47;;
1350;SDS011;669;50.206;9.998;2024-01-10T08:38:36;17.83;;;8.43;;
1350;SDS011;669;50.206;9.998;2024-01-10T08:41:04;9.47;;;6.03;;
1350;SDS011;669;50.206;9.998;2024-01-10T08:43:32;14.67;;;7.40;;
1350;SDS011;669;50.206;9.998;2024-01-10T08:46:01;13.03;;;7.97;;
1350;SDS011;669;50.206;9.998;2024-01-10T08:48:30;15.27;;;8.07;;
1350;SDS011;669;50.206;9.998;2024-01-10T08:50:58;11.97;;;6.60;;
1350;SDS011;669;50.206;9.998;2024-01-10T08:53:25;16.27;;;8.63;;
1350;SDS011;669;50.206;9.998;2024-01-10T08:55:54;11.03;;;7.50;;
1350;SDS011;669;50.206;9.998;2024-01-10T08:58:22;13.93;;;8.03;;
1350;SDS011;669;50.206;9.998;2024-01-10T09:00:49;9.50;;;6.27;;
1350;SDS011;669;50.206;9.998;2024-01-10T09:03:19;13.00;;;7.43;;
1350;SDS011;669;50.206;9.998;2024-01-10T09:05:47;11.63;;;7.90;;
1350;SDS011;669;50.206;9.998;2024-01-10T09:08:30;17.47;;;8.83;;
1350;SDS011;669;50.206;9.998;2024-01-10T09:10:58;12.63;;;8.10;;
1350;SDS011;669;50.206;9.998;2024-01-10T09:13:26;17.63;;;9.10;;
1350;SDS011;669;50.206;9.998;2024-01-10T09:15:54;17.00;;;8.77;;
1350;SDS011;669;50.206;9.998;2024-01-10T09:18:24;12.53;;;7.50;;
1350;SDS011;669;50.206;9.998;2024-01-10T09:20:52;14.23;;;8.30;;
1350;SDS011;669;50.206;9.998;2024-01-10T09:23:22;12.70;;;7.87;;
1350;SDS011;669;50.206;9.998;2024-01-10T09:25:50;17.03;;;8.70;;
1350;SDS011;669;50.206;9.998;2024-01-10T09:28:19;11.93;;;7.10;;
1350;SDS011;669;50.206;9.998;2024-01-10T09:30:47;14.60;;;7.90;;
1350;SDS011;669;50.206;9.998;2024-01-10T09:33:15;14.37;;;7.33;;
1350;SDS011;669;50.206;9.998;2024-01-10T09:35:44;19.43;;;9.43;;
1350;SDS011;669;50.206;9.998;2024-01-10T09:38:12;14.60;;;8.90;;
1350;SDS011;669;50.206;9.998;2024-01-10T09:40:40;14.50;;;8.70;;
1350;SDS011;669;50.206;9.998;2024-01-10T09:43:09;13.33;;;8.80;;
1350;SDS011;669;50.206;9.998;2024-01-10T09:45:39;18.80;;;8.30;;
1350;SDS011;669;50.206;9.998;2024-01-10T09:48:12;13.03;;;7.93;;
1350;SDS011;669;50.206;9.998;2024-01-10T09:50:42;14.87;;;9.13;;
1350;SDS011;669;50.206;9.998;2024-01-10T09:53:13;10.63;;;7.20;;
1350;SDS011;669;50.206;9.998;2024-01-10T09:55:48;13.50;;;7.40;;
1350;SDS011;669;50.206;9.998;2024-01-10T09:58:16;17.33;;;7.87;;
1350;SDS011;669;50.206;9.998;2024-01-10T10:00:44;15.47;;;8.30;;
1350;SDS011;669;50.206;9.998;2024-01-10T10:03:12;12.97;;;7.17;;
1350;SDS011;669;50.206;9.998;2024-01-10T10:05:44;16.33;;;8.50;;
1350;SDS011;669;50.206;9.998;2024-01-10T10:08:14;14.73;;;7.30;;
1350;SDS011;669;50.206;9.998;2024-01-10T10:10:48;16.60;;;8.23;;
1350;SDS011;669;50.206;9.998;2024-01-10T10:13:25;13.10;;;7.87;;
1350;SDS011;669;50.206;9.998;2024-01-10T10:15:58;10.80;;;8.60;;
1350;SDS011;669;50.206;9.998;2024-01-10T10:18:27;11.43;;;7.80;;
1350;SDS011;669;50.206;9.998;2024-01-10T10:21:05;13.33;;;8.03;;
1350;SDS011;669;50.206;9.998;2024-01-10T10:23:37;14.03;;;8.80;;
1350;SDS011;669;50.206;9.998;2024-01-10T10:26:13;12.30;;;7.80;;
1350;SDS011;669;50.206;9.998;2024-01-10T10:28:46;13.80;;;8.47;;
1350;SDS011;669;50.206;9.998;2024-01-10T10:31:15;16.87;;;8.87;;
1350;SDS011;669;50.206;9.998;2024-01-10T10:33:44;13.97;;;8.43;;
1350;SDS011;669;50.206;9.998;2024-01-10T10:36:13;13.27;;;7.63;;
1350;SDS011;669;50.206;9.998;2024-01-10T10:38:43;14.50;;;9.10;;
1350;SDS011;669;50.206;9.998;2024-01-10T10:41:11;14.40;;;8.33;;
1350;SDS011;669;50.206;9.998;2024-01-10T10:43:41;12.83;;;8.37;;
1350;SDS011;669;50.206;9.998;2024-01-10T10:46:10;16.43;;;9.80;;
1350;SDS011;669;50.206;9.998;2024-01-10T10:48:39;15.20;;;8.70;;
1350;SDS011;669;50.206;9.998;2024-01-10T10:51:09;13.37;;;9.13;;
1350;SDS011;669;50.206;9.998;2024-01-10T10:53:39;13.87;;;8.53;;
1350;SDS011;669;50.206;9.998;2024-01-10T10:56:12;16.37;;;8.77;;
1350;SDS011;669;50.206;9.998;2024-01-10T10:58:41;12.77;;;7.17;;
1350;SDS011;669;50.206;9.998;2024-01-10T11:01:11;11.10;;;7.63;;
1350;SDS011;669;50.206;9.998;2024-01-10T11:03:40;12.03;;;8.37;;
1350;SDS011;669;50.206;9.998;2024-01-10T11:06:11;15.63;;;8.83;;
1350;SDS011;669;50.206;9.998;2024-01-10T11:08:40;15.23;;;9.20;;
1350;SDS011;669;50.206;9.998;2024-01-10T11:11:17;13.53;;;8.43;;
1350;SDS011;669;50.206;9.998;2024-01-10T11:14:00;15.10;;;7.70;;
1350;SDS011;669;50.206;9.998;2024-01-10T11:22:58;13.37;;;8.10;;
1350;SDS011;669;50.206;9.998;2024-01-10T11:25:45;12.23;;;8.57;;
1350;SDS011;669;50.206;9.998;2024-01-10T11:28:14;14.93;;;8.40;;
1350;SDS011;669;50.206;9.998;2024-01-10T11:30:48;15.27;;;8.90;;
1350;SDS011;669;50.206;9.998;2024-01-10T11:33:19;17.27;;;9.83;;
1350;SDS011;669;50.206;9.998;2024-01-10T11:38:44;18.43;;;9.07;;
1350;SDS011;669;50.206;9.998;2024-01-10T11:41:19;14.77;;;9.93;;
1350;SDS011;669;50.206;9.998;2024-01-10T11:46:58;14.43;;;8.90;;
1350;SDS011;669;50.206;9.998;2024-01-10T11:49:27;15.70;;;9.60;;
1350;SDS011;669;50.206;9.998;2024-01-10T11:51:56;13.07;;;8.87;;
1350;SDS011;669;50.206;9.998;2024-01-10T11:54:39;14.60;;;8.10;;
1350;SDS011;669;50.206;9.998;2024-01-10T11:57:10;22.17;;;8.90;;
1350;SDS011;669;50.206;9.998;2024-01-10T11:59:41;13.50;;;9.10;;
1350;SDS011;669;50.206;9.998;2024-01-10T12:02:11;11.63;;;8.13;;
1350;SDS011;669;50.206;9.998;2024-01-10T12:04:41;12.40;;;7.60;;
1350;SDS011;669;50.206;9.998;2024-01-10T12:07:14;15.27;;;8.57;;
1350;SDS011;669;50.206;9.998;2024-01-10T12:09:44;16.37;;;9.30;;
1350;SDS011;669;50.206;9.998;2024-01-10T12:12:12;13.23;;;7.97;;
1350;SDS011;669;50.206;9.998;2024-01-10T12:14:42;14.93;;;9.63;;
1350;SDS011;669;50.206;9.998;2024-01-10T12:17:10;18.20;;;10.00;;
1350;SDS011;669;50.206;9.998;2024-01-10T12:19:39;12.40;;;8.40;;
1350;SDS011;669;50.206;9.998;2024-01-10T12:22:07;11.87;;;9.00;;
1350;SDS011;669;50.206;9.998;2024-01-10T12:24:38;13.97;;;8.93;;
1350;SDS011;669;50.206;9.998;2024-01-10T12:27:11;11.70;;;8.63;;
1350;SDS011;669;50.206;9.998;2024-01-10T12:29:39;15.67;;;9.33;;
1350;SDS011;669;50.206;9.998;2024-01-10T12:32:08;12.10;;;8.73;;
1350;SDS011;669;50.206;9.998;2024-01-10T12:34:39;10.40;;;7.80;;
1350;SDS011;669;50.206;9.998;2024-01-10T12:37:07;15.83;;;9.53;;
1350;SDS011;669;50.206;9.998;2024-01-10T12:39:38;11.90;;;8.50;;
1350;SDS011;669;50.206;9.998;2024-01-10T12:42:06;15.00;;;8.83;;
1350;SDS011;669;50.206;9.998;2024-01-10T12:44:35;14.73;;;8.37;;
1350;SDS011;669;50.206;9.998;2024-01-10T12:47:05;16.13;;;10.17;;
1350;SDS011;669;50.206;9.998;2024-01-10T12:49:34;12.60;;;8.63;;
1350;SDS011;669;50.206;9.998;2024-01-10T12:52:04;12.00;;;8.60;;
1350;SDS011;669;50.206;9.998;2024-01-10T12:54:38;15.43;;;10.17;;
1350;SDS011;669;50.206;9.998;2024-01-10T12:57:06;12.60;;;8.60;;
1350;SDS011;669;50.206;9.998;2024-01-10T12:59:34;15.53;;;10.23;;
1350;SDS011;669;50.206;9.998;2024-01-10T13:02:02;13.40;;;9.17;;
1350;SDS011;669;50.206;9.998;2024-01-10T13:04:30;12.50;;;9.17;;
1350;SDS011;669;50.206;9.998;2024-01-10T13:07:00;11.70;;;8.20;;
1350;SDS011;669;50.206;9.998;2024-01-10T13:09:28;17.30;;;9.10;;
1350;SDS011;669;50.206;9.998;2024-01-10T13:11:57;12.23;;;8.93;;
1350;SDS011;669;50.206;9.998;2024-01-10T13:14:25;14.60;;;9.37;;
1350;SDS011;669;50.206;9.998;2024-01-10T13:16:53;12.43;;;8.13;;
1350;SDS011;669;50.206;9.998;2024-01-10T13:19:25;13.23;;;8.70;;
1350;SDS011;669;50.206;9.998;2024-01-10T13:21:54;11.73;;;8.37;;
1350;SDS011;669;50.206;9.998;2024-01-10T13:24:23;11.97;;;8.40;;
1350;SDS011;669;50.206;9.998;2024-01-10T13:26:51;15.57;;;9.10;;
1350;SDS011;669;50.206;9.998;2024-01-10T13:29:19;13.20;;;8.77;;
1350;SDS011;669;50.206;9.998;2024-01-10T13:31:47;13.33;;;8.80;;
1350;SDS011;669;50.206;9.998;2024-01-10T13:34:16;12.00;;;8.60;;
1350;SDS011;669;50.206;9.998;2024-01-10T13:36:44;12.63;;;8.60;;
1350;SDS011;669;50.206;9.998;2024-01-10T13:39:11;11.17;;;7.97;;
1350;SDS011;669;50.206;9.998;2024-01-10T13:41:43;14.37;;;8.90;;
1350;SDS011;669;50.206;9.998;2024-01-10T13:44:11;13.90;;;9.50;;
1350;SDS011;669;50.206;9.998;2024-01-10T13:46:39;12.97;;;8.47;;
1350;SDS011;669;50.206;9.998;2024-01-10T13:49:07;13.67;;;8.50;;
1350;SDS011;669;50.206;9.998;2024-01-10T13:51:35;12.53;;;8.77;;
1350;SDS011;669;50.206;9.998;2024-01-10T13:54:07;13.03;;;8.20;;
1350;SDS011;669;50.206;9.998;2024-01-10T13:56:35;13.03;;;8.67;;
1350;SDS011;669;50.206;9.998;2024-01-10T13:59:07;14.17;;;9.10;;
1350;SDS011;669;50.206;9.998;2024-01-10T14:01:36;10.97;;;8.13;;
1350;SDS011;669;50.206;9.998;2024-01-10T14:04:04;14.80;;;8.70;;
1350;SDS011;669;50.206;9.998;2024-01-10T14:06:33;13.67;;;8.60;;
1350;SDS011;669;50.206;9.998;2024-01-10T14:09:01;15.17;;;9.70;;
1350;SDS011;669;50.206;9.998;2024-01-10T14:11:29;10.13;;;7.87;;
1350;SDS011;669;50.206;9.998;2024-01-10T14:13:59;16.40;;;8.90;;
1350;SDS011;669;50.206;9.998;2024-01-10T14:16:29;9.47;;;7.20;;
1350;SDS011;669;50.206;9.998;2024-01-10T14:18:57;15.60;;;8.10;;
1350;SDS011;669;50.206;9.998;2024-01-10T14:21:25;11.13;;;7.80;;
1350;SDS011;669;50.206;9.998;2024-01-10T14:23:53;12.50;;;8.83;;
1350;SDS011;669;50.206;9.998;2024-01-10T14:26:21;14.57;;;9.40;;
1350;SDS011;669;50.206;9.998;2024-01-10T14:28:50;14.80;;;9.30;;
1350;SDS011;669;50.206;9.998;2024-01-10T14:31:21;16.07;;;8.60;;
1350;SDS011;669;50.206;9.998;2024-01-10T14:34:05;15.33;;;9.57;;
1350;SDS011;669;50.206;9.998;2024-01-10T14:36:37;13.77;;;8.03;;
1350;SDS011;669;50.206;9.998;2024-01-10T14:39:05;9.10;;;7.43;;
1350;SDS011;669;50.206;9.998;2024-01-10T14:41:34;17.00;;;8.83;;
1350;SDS011;669;50.206;9.998;2024-01-10T14:44:02;12.33;;;8.70;;
1350;SDS011;669;50.206;9.998;2024-01-10T14:46:30;12.83;;;8.17;;
1350;SDS011;669;50.206;9.998;2024-01-10T14:48:58;16.80;;;10.13;;
1350;SDS011;669;50.206;9.998;2024-01-10T14:51:28;12.63;;;7.03;;
1350;SDS011;669;50.206;9.998;2024-01-10T14:53:56;11.80;;;7.80;;
1350;SDS011;669;50.206;9.998;2024-01-10T14:56:24;11.37;;;6.40;;
1350;SDS011;669;50.206;9.998;2024-01-10T14:58:52;9.90;;;6.20;;
1350;SDS011;669;50.206;9.998;2024-01-10T15:01:20;8.10;;;5.50;;
1350;SDS011;669;50.206;9.998;2024-01-10T15:03:48;7.90;;;5.83;;
1350;SDS011;669;50.206;9.998;2024-01-10T15:06:18;9.90;;;6.87;;
1350;SDS011;669;50.206;9.998;2024-01-10T15:08:48;9.67;;;6.80;;
1350;SDS011;669;50.206;9.998;2024-01-10T15:11:15;9.57;;;6.10;;
1350;SDS011;669;50.206;9.998;2024-01-10T15:13:45;10.20;;;7.00;;
1350;SDS011;669;50.206;9.998;2024-01-10T15:16:15;10.00;;;6.60;;
1350;SDS011;669;50.206;9.998;2024-01-10T15:18:43;10.40;;;7.00;;
1350;SDS011;669;50.206;9.998;2024-01-10T15:21:11;8.50;;;5.40;;
1350;SDS011;669;50.206;9.998;2024-01-10T15:23:39;8.23;;;5.00;;
1350;SDS011;669;50.206;9.998;2024-01-10T15:26:13;10.60;;;5.87;;
1350;SDS011;669;50.206;9.998;2024-01-10T15:28:43;10.40;;;6.00;;
1350;SDS011;669;50.206;9.998;2024-01-10T15:31:13;8.60;;;5.70;;
1350;SDS011;669;50.206;9.998;2024-01-10T15:33:42;7.30;;;4.80;;
1350;SDS011;669;50.206;9.998;2024-01-10T15:36:10;10.37;;;5.80;;
1350;SDS011;669;50.206;9.998;2024-01-10T15:38:39;11.50;;;6.07;;
1350;SDS011;669;50.206;9.998;2024-01-10T15:41:07;9.63;;;5.83;;